sensor_id;sensor_type;location;lat;lon;timestamp;pressure;altitude;pressure_sealevel;temperature;humidity
75913;BME280;64592;52.168;21.040;2023-06-22T00:00:02;100418.56;;;21.33;87.17
75913;BME280;64592;52.168;21.040;2023-06-22T00:05:08;100427.50;;;21.27;87.20
75913;BME280;64592;52.168;21.040;2023-06-22T00:10:10;100435.53;;;21.28;87.26
75913;BME280;64592;52.168;21.040;2023-06-22T00:15:13;100432.31;;;21.25;87.70
75913;BME280;64592;52.168;21.040;2023-06-22T00:20:15;100434.75;;;21.20;87.51
75913;BME280;64592;52.168;21.040;2023-06-22T00:25:18;100427.88;;;21.24;87.33
75913;BME280;64592;52.168;21.040;2023-06-22T00:30:21;100442.63;;;21.23;87.18
75913;BME280;64592;52.168;21.040;2023-06-22T00:35:23;100434.41;;;21.15;87.59
75913;BME280;64592;52.168;21.040;2023-06-22T00:40:29;100424.84;;;21.11;87.56
75913;BME280;64592;52.168;21.040;2023-06-22T00:45:33;100421.59;;;21.07;87.63
75913;BME280;64592;52.168;21.040;2023-06-22T00:50:35;100421.59;;;21.07;87.06
75913;BME280;64592;52.168;21.040;2023-06-22T00:55:38;100424.91;;;21.03;87.09
75913;BME280;64592;52.168;21.040;2023-06-22T01:00:44;100416.00;;;21.01;87.13
75913;BME280;64592;52.168;21.040;2023-06-22T01:05:46;100407.84;;;20.92;87.34
75913;BME280;64592;52.168;21.040;2023-06-22T01:10:52;100399.59;;;20.92;87.49
75913;BME280;64592;52.168;21.040;2023-06-22T01:16:00;100386.63;;;20.86;87.61
75913;BME280;64592;52.168;21.040;2023-06-22T01:21:04;100390.63;;;20.76;87.96
75913;BME280;64592;52.168;21.040;2023-06-22T01:26:11;100395.97;;;20.69;88.21
75913;BME280;64592;52.168;21.040;2023-06-22T01:31:22;100393.97;;;20.63;88.83
75913;BME280;64592;52.168;21.040;2023-06-22T01:36:25;100384.38;;;20.67;89.74
75913;BME280;64592;52.168;21.040;2023-06-22T01:41:29;100375.41;;;20.73;89.02
75913;BME280;64592;52.168;21.040;2023-06-22T01:46:33;100372.50;;;20.75;89.03
75913;BME280;64592;52.168;21.040;2023-06-22T01:51:35;100380.53;;;20.76;88.58
75913;BME280;64592;52.168;21.040;2023-06-22T01:56:37;100391.47;;;20.76;89.10
75913;BME280;64592;52.168;21.040;2023-06-22T02:01:43;100402.81;;;20.73;89.28
75913;BME280;64592;52.168;21.040;2023-06-22T02:06:46;100404.16;;;20.77;89.51
75913;BME280;64592;52.168;21.040;2023-06-22T02:11:52;100414.44;;;20.75;89.45
75913;BME280;64592;52.168;21.040;2023-06-22T02:16:57;100425.69;;;20.58;90.77
75913;BME280;64592;52.168;21.040;2023-06-22T02:21:59;100438.88;;;20.54;91.24
75913;BME280;64592;52.168;21.040;2023-06-22T02:27:02;100435.78;;;20.57;91.25
75913;BME280;64592;52.168;21.040;2023-06-22T02:32:06;100448.78;;;20.55;91.45
75913;BME280;64592;52.168;21.040;2023-06-22T02:37:07;100447.47;;;20.51;92.08
75913;BME280;64592;52.168;21.040;2023-06-22T02:42:11;100459.44;;;20.50;92.72
75913;BME280;64592;52.168;21.040;2023-06-22T02:47:14;100467.66;;;20.50;93.30
75913;BME280;64592;52.168;21.040;2023-06-22T02:52:15;100476.56;;;20.52;93.34
75913;BME280;64592;52.168;21.040;2023-06-22T02:57:17;100475.16;;;20.56;93.76
75913;BME280;64592;52.168;21.040;2023-06-22T03:02:20;100483.03;;;20.59;93.73
75913;BME280;64592;52.168;21.040;2023-06-22T03:07:23;100489.38;;;20.60;94.07
75913;BME280;64592;52.168;21.040;2023-06-22T03:12:25;100484.72;;;20.60;94.45
75913;BME280;64592;52.168;21.040;2023-06-22T03:17:28;100494.31;;;20.64;94.94
75913;BME280;64592;52.168;21.040;2023-06-22T03:22:30;100498.75;;;20.65;95.17
75913;BME280;64592;52.168;21.040;2023-06-22T03:27:31;100502.19;;;20.67;94.90
75913;BME280;64592;52.168;21.040;2023-06-22T03:32:34;100500.97;;;20.70;94.49
75913;BME280;64592;52.168;21.040;2023-06-22T03:37:36;100508.16;;;20.71;94.84
75913;BME280;64592;52.168;21.040;2023-06-22T03:42:38;100498.22;;;20.70;94.27
75913;BME280;64592;52.168;21.040;2023-06-22T03:47:41;100507.59;;;20.75;94.30
75913;BME280;64592;52.168;21.040;2023-06-22T03:52:43;100526.78;;;20.75;94.08
75913;BME280;64592;52.168;21.040;2023-06-22T03:57:44;100539.81;;;20.81;93.75
75913;BME280;64592;52.168;21.040;2023-06-22T04:02:47;100533.28;;;20.82;93.47
75913;BME280;64592;52.168;21.040;2023-06-22T04:07:49;100535.66;;;20.85;93.42
75913;BME280;64592;52.168;21.040;2023-06-22T04:12:51;100533.22;;;20.90;93.15
75913;BME280;64592;52.168;21.040;2023-06-22T04:17:54;100540.09;;;20.95;93.01
75913;BME280;64592;52.168;21.040;2023-06-22T04:22:57;100544.53;;;20.96;93.02
75913;BME280;64592;52.168;21.040;2023-06-22T04:27:58;100551.19;;;21.01;92.88
75913;BME280;64592;52.168;21.040;2023-06-22T04:33:04;100545.16;;;21.06;92.49
75913;BME280;64592;52.168;21.040;2023-06-22T04:38:06;100541.53;;;21.13;91.98
75913;BME280;64592;52.168;21.040;2023-06-22T04:43:08;100538.59;;;21.15;91.68
75913;BME280;64592;52.168;21.040;2023-06-22T04:48:12;100540.00;;;21.19;91.62
75913;BME280;64592;52.168;21.040;2023-06-22T04:53:16;100544.78;;;21.25;91.28
75913;BME280;64592;52.168;21.040;2023-06-22T04:58:17;100533.41;;;21.28;91.15
75913;BME280;64592;52.168;21.040;2023-06-22T05:03:24;100544.38;;;21.28;90.90
75913;BME280;64592;52.168;21.040;2023-06-22T05:08:26;100550.38;;;21.32;90.24
75913;BME280;64592;52.168;21.040;2023-06-22T05:13:28;100549.19;;;21.34;90.50
75913;BME280;64592;52.168;21.040;2023-06-22T05:18:31;100540.94;;;21.34;89.78
75913;BME280;64592;52.168;21.040;2023-06-22T05:23:35;100538.22;;;21.34;89.73
75913;BME280;64592;52.168;21.040;2023-06-22T05:28:37;100550.88;;;21.35;89.61
75913;BME280;64592;52.168;21.040;2023-06-22T05:33:40;100566.47;;;21.35;89.10
75913;BME280;64592;52.168;21.040;2023-06-22T05:38:42;100565.25;;;21.37;89.36
75913;BME280;64592;52.168;21.040;2023-06-22T05:43:43;100559.03;;;21.43;88.81
75913;BME280;64592;52.168;21.040;2023-06-22T05:48:46;100574.47;;;21.44;88.72
75913;BME280;64592;52.168;21.040;2023-06-22T05:53:48;100576.19;;;21.45;88.62
75913;BME280;64592;52.168;21.040;2023-06-22T05:58:50;100584.41;;;21.45;88.21
75913;BME280;64592;52.168;21.040;2023-06-22T06:03:54;100583.56;;;21.45;88.46
75913;BME280;64592;52.168;21.040;2023-06-22T06:08:55;100576.50;;;21.50;88.31
75913;BME280;64592;52.168;21.040;2023-06-22T06:13:57;100590.03;;;21.52;87.65
75913;BME280;64592;52.168;21.040;2023-06-22T06:19:00;100598.09;;;21.53;87.71
75913;BME280;64592;52.168;21.040;2023-06-22T06:24:02;100611.94;;;21.60;87.91
75913;BME280;64592;52.168;21.040;2023-06-22T06:29:04;100596.50;;;21.59;87.87
75913;BME280;64592;52.168;21.040;2023-06-22T06:34:07;100606.28;;;21.61;87.92
75913;BME280;64592;52.168;21.040;2023-06-22T06:39:08;100602.13;;;21.65;87.55
75913;BME280;64592;52.168;21.040;2023-06-22T06:44:10;100606.06;;;21.71;87.21
75913;BME280;64592;52.168;21.040;2023-06-22T06:49:13;100604.47;;;21.77;87.06
75913;BME280;64592;52.168;21.040;2023-06-22T06:54:15;100608.19;;;21.84;87.17
75913;BME280;64592;52.168;21.040;2023-06-22T06:59:17;100605.00;;;21.95;86.41
75913;BME280;64592;52.168;21.040;2023-06-22T07:04:20;100607.38;;;22.06;85.76
75913;BME280;64592;52.168;21.040;2023-06-22T07:09:21;100596.78;;;22.18;85.31
75913;BME280;64592;52.168;21.040;2023-06-22T07:14:23;100600.31;;;22.26;84.63
75913;BME280;64592;52.168;21.040;2023-06-22T07:19:27;100601.69;;;22.30;83.74
75913;BME280;64592;52.168;21.040;2023-06-22T07:24:28;100607.06;;;22.38;83.46
75913;BME280;64592;52.168;21.040;2023-06-22T07:29:30;100608.72;;;22.48;83.41
75913;BME280;64592;52.168;21.040;2023-06-22T07:34:34;100614.31;;;22.54;80.31
75913;BME280;64592;52.168;21.040;2023-06-22T07:39:35;100614.91;;;22.64;79.79
75913;BME280;64592;52.168;21.040;2023-06-22T07:44:38;100607.06;;;22.76;78.17
75913;BME280;64592;52.168;21.040;2023-06-22T07:49:41;100616.25;;;22.83;76.32
75913;BME280;64592;52.168;21.040;2023-06-22T07:54:42;100614.28;;;22.92;76.11
75913;BME280;64592;52.168;21.040;2023-06-22T07:59:44;100622.63;;;22.98;74.58
75913;BME280;64592;52.168;21.040;2023-06-22T08:04:47;100624.25;;;23.07;75.02
75913;BME280;64592;52.168;21.040;2023-06-22T08:09:49;100623.69;;;23.12;73.46
75913;BME280;64592;52.168;21.040;2023-06-22T08:14:50;100618.72;;;23.22;73.13
75913;BME280;64592;52.168;21.040;2023-06-22T08:19:53;100604.59;;;23.25;71.85
75913;BME280;64592;52.168;21.040;2023-06-22T08:24:55;100612.94;;;23.32;70.68
75913;BME280;64592;52.168;21.040;2023-06-22T08:29:57;100613.47;;;23.42;70.11
75913;BME280;64592;52.168;21.040;2023-06-22T08:35:00;100607.25;;;23.48;68.80
75913;BME280;64592;52.168;21.040;2023-06-22T08:40:04;100602.28;;;23.58;69.55
75913;BME280;64592;52.168;21.040;2023-06-22T08:45:09;100600.66;;;23.64;66.35
75913;BME280;64592;52.168;21.040;2023-06-22T08:50:12;100609.63;;;23.72;66.38
75913;BME280;64592;52.168;21.040;2023-06-22T08:55:14;100611.03;;;23.83;67.13
75913;BME280;64592;52.168;21.040;2023-06-22T09:00:17;100620.41;;;23.88;64.02
75913;BME280;64592;52.168;21.040;2023-06-22T09:05:21;100616.50;;;23.97;64.20
75913;BME280;64592;52.168;21.040;2023-06-22T09:10:23;100626.34;;;24.07;63.90
75913;BME280;64592;52.168;21.040;2023-06-22T09:15:25;100628.97;;;24.15;61.88
75913;BME280;64592;52.168;21.040;2023-06-22T09:20:28;100625.03;;;24.24;61.62
75913;BME280;64592;52.168;21.040;2023-06-22T09:25:30;100615.16;;;24.29;59.68
75913;BME280;64592;52.168;21.040;2023-06-22T09:30:31;100610.31;;;24.38;58.03
75913;BME280;64592;52.168;21.040;2023-06-22T09:35:34;100606.66;;;24.52;59.58
75913;BME280;64592;52.168;21.040;2023-06-22T09:40:36;100606.06;;;24.63;58.80
75913;BME280;64592;52.168;21.040;2023-06-22T09:45:40;100605.94;;;24.71;56.62
75913;BME280;64592;52.168;21.040;2023-06-22T09:50:43;100609.81;;;24.84;57.30
75913;BME280;64592;52.168;21.040;2023-06-22T09:55:45;100606.94;;;24.92;56.12
75913;BME280;64592;52.168;21.040;2023-06-22T10:00:46;100602.16;;;25.07;54.92
75913;BME280;64592;52.168;21.040;2023-06-22T10:05:49;100602.88;;;25.22;55.70
75913;BME280;64592;52.168;21.040;2023-06-22T10:10:51;100599.97;;;25.43;55.84
75913;BME280;64592;52.168;21.040;2023-06-22T10:15:53;100608.16;;;25.65;53.86
75913;BME280;64592;52.168;21.040;2023-06-22T10:20:56;100607.78;;;25.81;53.98
75913;BME280;64592;52.168;21.040;2023-06-22T10:25:57;100603.13;;;25.95;53.56
75913;BME280;64592;52.168;21.040;2023-06-22T10:30:59;100608.72;;;26.14;52.21
75913;BME280;64592;52.168;21.040;2023-06-22T10:36:02;100591.75;;;26.31;51.96
75913;BME280;64592;52.168;21.040;2023-06-22T10:41:04;100582.38;;;26.51;52.56
75913;BME280;64592;52.168;21.040;2023-06-22T10:46:06;100592.56;;;26.71;51.98
75913;BME280;64592;52.168;21.040;2023-06-22T10:51:09;100584.22;;;26.84;50.83
75913;BME280;64592;52.168;21.040;2023-06-22T10:56:11;100581.88;;;27.00;51.93
75913;BME280;64592;52.168;21.040;2023-06-22T11:01:13;100578.66;;;27.17;51.15
75913;BME280;64592;52.168;21.040;2023-06-22T11:06:16;100572.38;;;27.41;50.75
75913;BME280;64592;52.168;21.040;2023-06-22T11:11:18;100554.41;;;27.63;48.79
75913;BME280;64592;52.168;21.040;2023-06-22T11:16:19;100559.94;;;27.57;47.96
75913;BME280;64592;52.168;21.040;2023-06-22T11:21:22;100572.63;;;27.77;46.89
75913;BME280;64592;52.168;21.040;2023-06-22T11:26:24;100556.72;;;27.98;46.55
75913;BME280;64592;52.168;21.040;2023-06-22T11:31:27;100558.22;;;28.25;45.75
75913;BME280;64592;52.168;21.040;2023-06-22T11:36:30;100556.53;;;28.49;45.54
75913;BME280;64592;52.168;21.040;2023-06-22T11:41:33;100551.97;;;28.79;45.29
75913;BME280;64592;52.168;21.040;2023-06-22T11:46:35;100563.56;;;28.94;44.38
75913;BME280;64592;52.168;21.040;2023-06-22T11:51:38;100561.94;;;28.87;43.86
75913;BME280;64592;52.168;21.040;2023-06-22T11:56:39;100554.06;;;29.02;44.14
75913;BME280;64592;52.168;21.040;2023-06-22T12:01:41;100551.13;;;29.33;43.07
75913;BME280;64592;52.168;21.040;2023-06-22T12:06:44;100565.75;;;29.59;42.13
75913;BME280;64592;52.168;21.040;2023-06-22T12:11:46;100556.34;;;29.90;42.45
75913;BME280;64592;52.168;21.040;2023-06-22T12:16:47;100554.97;;;30.10;41.15
75913;BME280;64592;52.168;21.040;2023-06-22T12:21:51;100544.00;;;30.27;41.45
75913;BME280;64592;52.168;21.040;2023-06-22T12:26:52;100545.09;;;30.38;39.63
75913;BME280;64592;52.168;21.040;2023-06-22T12:31:54;100542.97;;;30.52;38.24
75913;BME280;64592;52.168;21.040;2023-06-22T12:36:57;100532.63;;;30.75;38.50
75913;BME280;64592;52.168;21.040;2023-06-22T12:41:59;100537.97;;;30.77;37.86
75913;BME280;64592;52.168;21.040;2023-06-22T12:47:00;100527.81;;;30.82;38.01
75913;BME280;64592;52.168;21.040;2023-06-22T12:52:08;100530.31;;;31.07;36.90
75913;BME280;64592;52.168;21.040;2023-06-22T12:57:10;100541.63;;;31.41;36.90
75913;BME280;64592;52.168;21.040;2023-06-22T13:02:12;100532.03;;;31.48;35.15
75913;BME280;64592;52.168;21.040;2023-06-22T13:07:15;100540.31;;;31.72;35.76
75913;BME280;64592;52.168;21.040;2023-06-22T13:12:16;100540.94;;;31.90;33.75
75913;BME280;64592;52.168;21.040;2023-06-22T13:17:18;100532.47;;;32.02;32.87
75913;BME280;64592;52.168;21.040;2023-06-22T13:22:29;100529.50;;;32.20;32.75
75913;BME280;64592;52.168;21.040;2023-06-22T13:27:31;100535.19;;;31.97;31.90
75913;BME280;64592;52.168;21.040;2023-06-22T13:32:33;100531.34;;;31.70;32.52
75913;BME280;64592;52.168;21.040;2023-06-22T13:37:36;100538.00;;;31.40;34.38
75913;BME280;64592;52.168;21.040;2023-06-22T13:42:38;100533.69;;;31.21;33.67
75913;BME280;64592;52.168;21.040;2023-06-22T13:47:40;100537.75;;;31.42;33.69
75913;BME280;64592;52.168;21.040;2023-06-22T13:52:43;100534.28;;;31.23;32.40
75913;BME280;64592;52.168;21.040;2023-06-22T13:57:44;100527.00;;;31.22;34.04
75913;BME280;64592;52.168;21.040;2023-06-22T14:02:46;100527.53;;;31.07;34.40
75913;BME280;64592;52.168;21.040;2023-06-22T14:07:49;100518.09;;;30.97;34.06
75913;BME280;64592;52.168;21.040;2023-06-22T14:12:51;100527.63;;;31.24;35.13
75913;BME280;64592;52.168;21.040;2023-06-22T14:17:53;100524.25;;;31.50;33.07
75913;BME280;64592;52.168;21.040;2023-06-22T14:22:56;100516.31;;;31.59;34.09
75913;BME280;64592;52.168;21.040;2023-06-22T14:27:58;100509.50;;;31.38;32.71
75913;BME280;64592;52.168;21.040;2023-06-22T14:33:00;100504.16;;;31.77;33.08
75913;BME280;64592;52.168;21.040;2023-06-22T14:38:03;100516.03;;;32.17;31.93
75913;BME280;64592;52.168;21.040;2023-06-22T14:43:04;100513.56;;;32.54;29.64
75913;BME280;64592;52.168;21.040;2023-06-22T14:48:06;100509.97;;;32.75;30.80
75913;BME280;64592;52.168;21.040;2023-06-22T14:53:09;100514.44;;;32.93;30.54
75913;BME280;64592;52.168;21.040;2023-06-22T14:58:11;100512.13;;;33.29;30.20
75913;BME280;64592;52.168;21.040;2023-06-22T15:03:12;100508.53;;;33.82;30.76
75913;BME280;64592;52.168;21.040;2023-06-22T15:08:19;100501.03;;;33.61;30.24
75913;BME280;64592;52.168;21.040;2023-06-22T15:13:21;100506.31;;;33.13;30.98
75913;BME280;64592;52.168;21.040;2023-06-22T15:18:23;100501.25;;;33.10;31.68
75913;BME280;64592;52.168;21.040;2023-06-22T15:23:26;100501.97;;;33.01;32.00
75913;BME280;64592;52.168;21.040;2023-06-22T15:28:28;100504.44;;;32.97;31.17
75913;BME280;64592;52.168;21.040;2023-06-22T15:33:32;100492.22;;;32.82;31.24
75913;BME280;64592;52.168;21.040;2023-06-22T15:38:35;100487.97;;;32.79;31.05
75913;BME280;64592;52.168;21.040;2023-06-22T15:43:37;100494.22;;;32.86;32.30
75913;BME280;64592;52.168;21.040;2023-06-22T15:48:38;100502.09;;;32.89;32.24
75913;BME280;64592;52.168;21.040;2023-06-22T15:53:41;100501.25;;;32.89;31.41
75913;BME280;64592;52.168;21.040;2023-06-22T15:58:43;100492.91;;;32.55;31.65
75913;BME280;64592;52.168;21.040;2023-06-22T16:03:45;100491.22;;;32.04;31.12
75913;BME280;64592;52.168;21.040;2023-06-22T16:08:48;100483.34;;;31.39;32.41
75913;BME280;64592;52.168;21.040;2023-06-22T16:13:49;100486.47;;;30.91;32.84
75913;BME280;64592;52.168;21.040;2023-06-22T16:18:51;100491.72;;;30.41;33.65
75913;BME280;64592;52.168;21.040;2023-06-22T16:23:54;100497.63;;;30.09;34.83
75913;BME280;64592;52.168;21.040;2023-06-22T16:28:56;100489.25;;;29.86;34.61
75913;BME280;64592;52.168;21.040;2023-06-22T16:33:57;100487.00;;;29.65;35.43
75913;BME280;64592;52.168;21.040;2023-06-22T16:39:00;100486.44;;;29.45;34.77
75913;BME280;64592;52.168;21.040;2023-06-22T16:44:03;100481.50;;;29.28;34.92
75913;BME280;64592;52.168;21.040;2023-06-22T16:49:06;100482.19;;;29.12;35.96
75913;BME280;64592;52.168;21.040;2023-06-22T16:54:10;100474.50;;;28.96;35.68
75913;BME280;64592;52.168;21.040;2023-06-22T16:59:11;100476.94;;;28.86;36.54
75913;BME280;64592;52.168;21.040;2023-06-22T17:04:16;100470.69;;;28.72;37.13
75913;BME280;64592;52.168;21.040;2023-06-22T17:09:21;100475.06;;;28.62;37.52
75913;BME280;64592;52.168;21.040;2023-06-22T17:14:23;100467.97;;;28.47;38.02
75913;BME280;64592;52.168;21.040;2023-06-22T17:19:25;100460.63;;;28.35;38.07
75913;BME280;64592;52.168;21.040;2023-06-22T17:24:28;100458.16;;;28.27;38.37
75913;BME280;64592;52.168;21.040;2023-06-22T17:29:32;100450.16;;;28.12;39.25
75913;BME280;64592;52.168;21.040;2023-06-22T17:34:35;100448.97;;;28.01;39.22
75913;BME280;64592;52.168;21.040;2023-06-22T17:39:38;100451.81;;;27.95;39.75
75913;BME280;64592;52.168;21.040;2023-06-22T17:44:42;100442.09;;;27.86;39.97
75913;BME280;64592;52.168;21.040;2023-06-22T17:49:44;100444.53;;;27.75;39.89
75913;BME280;64592;52.168;21.040;2023-06-22T17:54:50;100437.97;;;27.70;40.06
75913;BME280;64592;52.168;21.040;2023-06-22T17:59:52;100439.09;;;27.62;40.17
75913;BME280;64592;52.168;21.040;2023-06-22T18:04:56;100433.81;;;27.54;40.60
75913;BME280;64592;52.168;21.040;2023-06-22T18:09:59;100431.28;;;27.46;40.48
75913;BME280;64592;52.168;21.040;2023-06-22T18:15:02;100437.72;;;27.40;41.49
75913;BME280;64592;52.168;21.040;2023-06-22T18:20:06;100433.09;;;27.34;42.33
75913;BME280;64592;52.168;21.040;2023-06-22T18:25:12;100442.72;;;27.25;42.65
75913;BME280;64592;52.168;21.040;2023-06-22T18:30:15;100440.66;;;27.14;42.08
75913;BME280;64592;52.168;21.040;2023-06-22T18:35:18;100433.22;;;27.08;43.31
75913;BME280;64592;52.168;21.040;2023-06-22T18:40:21;100433.69;;;26.98;43.01
75913;BME280;64592;52.168;21.040;2023-06-22T18:45:24;100419.25;;;26.83;43.40
75913;BME280;64592;52.168;21.040;2023-06-22T18:50:36;100433.38;;;26.68;43.75
75913;BME280;64592;52.168;21.040;2023-06-22T18:55:41;100431.50;;;26.55;44.88
75913;BME280;64592;52.168;21.040;2023-06-22T19:00:44;100436.44;;;26.40;44.38
75913;BME280;64592;52.168;21.040;2023-06-22T19:05:46;100455.41;;;26.30;45.67
75913;BME280;64592;52.168;21.040;2023-06-22T19:10:50;100457.97;;;26.05;46.34
75913;BME280;64592;52.168;21.040;2023-06-22T19:15:52;100464.13;;;25.94;46.48
75913;BME280;64592;52.168;21.040;2023-06-22T19:20:59;100456.28;;;25.84;46.63
75913;BME280;64592;52.168;21.040;2023-06-22T19:26:05;100462.00;;;25.83;46.65
75913;BME280;64592;52.168;21.040;2023-06-22T19:31:08;100471.16;;;25.77;47.18
75913;BME280;64592;52.168;21.040;2023-06-22T19:36:10;100458.13;;;25.58;47.67
75913;BME280;64592;52.168;21.040;2023-06-22T19:41:14;100446.84;;;25.39;48.20
75913;BME280;64592;52.168;21.040;2023-06-22T19:46:15;100442.13;;;25.20;48.80
75913;BME280;64592;52.168;21.040;2023-06-22T19:51:17;100442.53;;;25.04;49.70
75913;BME280;64592;52.168;21.040;2023-06-22T19:56:20;100442.22;;;24.86;50.92
75913;BME280;64592;52.168;21.040;2023-06-22T20:01:22;100451.50;;;24.71;51.54
75913;BME280;64592;52.168;21.040;2023-06-22T20:06:24;100454.34;;;24.50;52.83
75913;BME280;64592;52.168;21.040;2023-06-22T20:11:29;100438.72;;;24.23;53.94
75913;BME280;64592;52.168;21.040;2023-06-22T20:16:33;100436.25;;;24.07;54.00
75913;BME280;64592;52.168;21.040;2023-06-22T20:21:46;100421.09;;;23.96;54.26
75913;BME280;64592;52.168;21.040;2023-06-22T20:26:49;100414.50;;;23.90;54.86
75913;BME280;64592;52.168;21.040;2023-06-22T20:32:03;100419.94;;;23.77;55.93
75913;BME280;64592;52.168;21.040;2023-06-22T20:37:05;100412.59;;;23.63;56.15
75913;BME280;64592;52.168;21.040;2023-06-22T20:42:09;100404.50;;;23.55;55.84
75913;BME280;64592;52.168;21.040;2023-06-22T20:47:12;100408.38;;;23.46;57.17
75913;BME280;64592;52.168;21.040;2023-06-22T20:52:13;100415.19;;;23.29;55.89
75913;BME280;64592;52.168;21.040;2023-06-22T20:57:19;100408.78;;;23.21;58.29
75913;BME280;64592;52.168;21.040;2023-06-22T21:02:20;100396.28;;;23.19;57.40
75913;BME280;64592;52.168;21.040;2023-06-22T21:07:23;100396.72;;;23.01;57.76
75913;BME280;64592;52.168;21.040;2023-06-22T21:12:26;100389.91;;;22.97;58.58
75913;BME280;64592;52.168;21.040;2023-06-22T21:17:28;100401.25;;;22.88;59.16
75913;BME280;64592;52.168;21.040;2023-06-22T21:22:30;100409.78;;;22.78;59.35
75913;BME280;64592;52.168;21.040;2023-06-22T21:27:34;100399.66;;;22.64;59.97
75913;BME280;64592;52.168;21.040;2023-06-22T21:32:37;100392.66;;;22.46;60.07
75913;BME280;64592;52.168;21.040;2023-06-22T21:37:40;100402.16;;;22.29;60.84
75913;BME280;64592;52.168;21.040;2023-06-22T21:42:43;100387.19;;;22.17;60.44
75913;BME280;64592;52.168;21.040;2023-06-22T21:47:45;100383.88;;;22.22;58.59
75913;BME280;64592;52.168;21.040;2023-06-22T21:52:46;100379.03;;;22.38;56.39
75913;BME280;64592;52.168;21.040;2023-06-22T21:57:49;100389.72;;;22.48;55.81
75913;BME280;64592;52.168;21.040;2023-06-22T22:02:51;100406.63;;;22.45;55.03
75913;BME280;64592;52.168;21.040;2023-06-22T22:07:53;100412.38;;;22.50;54.92
75913;BME280;64592;52.168;21.040;2023-06-22T22:12:56;100420.81;;;22.49;55.55
75913;BME280;64592;52.168;21.040;2023-06-22T22:17:58;100415.03;;;22.43;55.25
75913;BME280;64592;52.168;21.040;2023-06-22T22:23:04;100407.56;;;22.37;55.86
75913;BME280;64592;52.168;21.040;2023-06-22T22:28:07;100405.19;;;22.34;56.37
75913;BME280;64592;52.168;21.040;2023-06-22T22:33:09;100411.72;;;22.19;55.90
75913;BME280;64592;52.168;21.040;2023-06-22T22:38:10;100426.41;;;22.11;56.64
75913;BME280;64592;52.168;21.040;2023-06-22T22:43:13;100411.91;;;22.02;56.54
75913;BME280;64592;52.168;21.040;2023-06-22T22:48:15;100417.66;;;21.93;56.46
75913;BME280;64592;52.168;21.040;2023-06-22T22:53:17;100416.31;;;21.89;56.67
75913;BME280;64592;52.168;21.040;2023-06-22T22:58:20;100413.72;;;21.73;58.08
75913;BME280;64592;52.168;21.040;2023-06-22T23:03:22;100416.06;;;21.61;58.65
75913;BME280;64592;52.168;21.040;2023-06-22T23:08:24;100410.38;;;21.48;58.99
75913;BME280;64592;52.168;21.040;2023-06-22T23:13:28;100399.06;;;21.43;58.98
75913;BME280;64592;52.168;21.040;2023-06-22T23:18:30;100390.09;;;21.34;58.81
75913;BME280;64592;52.168;21.040;2023-06-22T23:23:32;100399.34;;;21.33;58.03
75913;BME280;64592;52.168;21.040;2023-06-22T23:28:36;100382.50;;;21.36;58.52
75913;BME280;64592;52.168;21.040;2023-06-22T23:33:37;100360.22;;;21.39;57.98
75913;BME280;64592;52.168;21.040;2023-06-22T23:38:40;100369.38;;;21.32;58.10
75913;BME280;64592;52.168;21.040;2023-06-22T23:43:43;100348.63;;;21.29;58.60
75913;BME280;64592;52.168;21.040;2023-06-22T23:48:44;100351.44;;;21.21;58.57
75913;BME280;64592;52.168;21.040;2023-06-22T23:53:47;100342.19;;;21.22;58.96
75913;BME280;64592;52.168;21.040;2023-06-22T23:58:51;100345.81;;;21.14;59.32
